Decoded Metar for LPMA (FUNCHAL/MADEIRA in PORTUGAL) (IATA:N/A) | Meteo·Mobile Aviation Weather
aviador You're here:

LPMA Decoded Metar

FUNCHAL/MADEIRA in PORTUGAL
Report Time2019-10-19 22:30:00
UTC Time2019-10-19 22:43:57
Flight Rules mvfr MVFR
Wind360° at 14 kt
W.Decomp.*RWY 05: 10.1 kt HW 9.7 kt LCW
Visibility9999 m
Phenomena:N/A
Clouds:Broken 014 Hf
Expected CloudBase > 1,600 ft AGL from Temp-Dew spread
Ceiling1,400 ft
Temp20°C (ISA +5)
Dew Point16°C (78% RH)
AAT17.0°C
QNH1018 hPa
Density Alt879 ft
Elevation180 ft
Report Wrong Elevation
Raw Report
LPMA 192230Z 36014KT 330V030 9999 BKN014 20/16 Q1018=

Extra information for LPMA:More info

Metar Taf Metar & Taf Last 4 Metars F.Rules Stats Wind Profile Meteogram Temp Stats Airport Information Weather charts Add Link Nearby VenuesMetar ALERT Operation Metar Decoded Social comments